createdAt,value
2023-06-02T00:54:49.564Z,13.98
2023-06-02T01:47:51.937Z,16.57
2023-06-02T02:26:46.168Z,18.79
2023-06-02T03:04:38.829Z,20.38
2023-06-02T03:30:11.207Z,20.22
2023-06-02T04:35:09.611Z,21.88
2023-06-02T04:38:16.419Z,21.59
2023-06-02T04:48:06.918Z,21.33
2023-06-02T04:54:37.844Z,21.93
2023-06-02T04:58:37.559Z,21.82
2023-06-02T05:01:46.969Z,21.99
2023-06-02T06:14:38.411Z,21.61
2023-06-02T06:17:53.913Z,21.59
2023-06-02T06:24:23.493Z,22.19
2023-06-02T06:31:36.256Z,23.47
2023-06-02T06:34:43.738Z,24.06
2023-06-02T06:59:13.871Z,28.33
2023-06-02T08:19:05.643Z,32.58
2023-06-02T08:32:39.675Z,26.16
2023-06-02T08:35:42.940Z,26.45
2023-06-02T08:38:47.398Z,26.00
2023-06-02T08:41:53.318Z,25.84
2023-06-02T08:44:56.508Z,24.70
2023-06-02T08:48:01.057Z,24.92
2023-06-02T08:51:08.828Z,25.04
2023-06-02T08:54:15.890Z,24.69
2023-06-02T08:57:21.970Z,24.95
2023-06-02T09:00:26.460Z,25.77
2023-06-02T09:03:45.530Z,25.65
2023-06-02T09:06:51.548Z,25.90
2023-06-02T09:09:58.655Z,26.11
2023-06-02T09:13:03.050Z,27.21
2023-06-02T09:16:06.744Z,27.95
2023-06-02T09:19:11.186Z,28.64
2023-06-02T09:22:15.041Z,28.06
2023-06-02T09:25:29.739Z,26.97
2023-06-02T09:28:33.686Z,26.16
2023-06-02T09:31:55.406Z,25.05
2023-06-02T09:34:59.007Z,24.57
2023-06-02T09:38:04.689Z,24.35
2023-06-02T09:41:18.411Z,24.04
2023-06-02T09:44:25.191Z,24.09
2023-06-02T09:47:29.442Z,25.01
2023-06-02T09:50:34.094Z,25.77
2023-06-02T09:53:37.888Z,25.97
2023-06-02T09:56:42.611Z,25.72
2023-06-02T09:59:47.470Z,26.34
2023-06-02T10:02:51.354Z,26.59
2023-06-02T10:06:27.272Z,27.66
2023-06-02T10:09:33.922Z,28.45
2023-06-02T10:12:43.814Z,29.23
2023-06-02T10:16:03.142Z,29.80
2023-06-02T10:19:28.226Z,29.19
2023-06-02T10:22:47.651Z,28.30
2023-06-02T10:26:14.493Z,30.06
2023-06-02T10:29:18.368Z,31.14
2023-06-02T10:32:31.527Z,32.27
2023-06-02T10:36:06.704Z,31.29
2023-06-02T10:39:40.850Z,30.64
2023-06-02T10:43:13.716Z,30.63
2023-06-02T10:46:18.607Z,31.21
2023-06-02T10:50:00.767Z,31.69
2023-06-02T10:53:05.890Z,32.55
2023-06-02T10:56:46.908Z,33.21
2023-06-02T10:59:50.113Z,33.95
2023-06-02T11:02:53.272Z,34.16
2023-06-02T11:06:17.193Z,33.62
2023-06-02T11:09:44.775Z,32.73
2023-06-02T11:12:56.039Z,31.93
2023-06-02T11:16:02.991Z,31.58
2023-06-02T11:19:06.757Z,31.73
2023-06-02T11:22:09.974Z,30.29
2023-06-02T11:25:16.494Z,28.71
2023-06-02T11:28:26.763Z,28.79
2023-06-02T11:31:31.135Z,29.67
2023-06-02T11:34:34.594Z,30.12
2023-06-02T11:37:45.512Z,30.46
2023-06-02T11:40:49.832Z,30.36
2023-06-02T11:44:08.654Z,30.29
2023-06-02T11:47:12.925Z,29.57
2023-06-02T11:50:19.958Z,28.34
2023-06-02T11:53:26.329Z,27.48
2023-06-02T11:56:34.645Z,27.54
2023-06-02T12:06:38.915Z,27.06
2023-06-02T12:13:31.274Z,26.20
2023-06-02T12:20:00.417Z,24.71
2023-06-02T12:23:09.655Z,23.53
2023-06-02T12:26:18.589Z,22.61
2023-06-02T12:29:23.783Z,21.61
2023-06-02T12:32:30.702Z,20.86
2023-06-02T12:35:36.374Z,20.03
2023-06-02T12:38:53.208Z,19.58
2023-06-02T12:46:34.887Z,18.81
2023-06-02T12:49:40.685Z,18.53
2023-06-02T12:52:45.305Z,18.12
2023-06-02T12:55:50.327Z,17.80
2023-06-02T12:58:54.170Z,17.54
2023-06-02T13:01:58.545Z,17.28
2023-06-02T13:12:14.206Z,16.87
2023-06-02T15:15:53.256Z,12.99
2023-06-02T15:18:57.913Z,12.85
2023-06-02T15:25:23.089Z,12.63
2023-06-02T15:28:29.591Z,12.56
2023-06-02T15:31:35.817Z,12.56
2023-06-02T15:34:42.172Z,12.56
2023-06-02T15:37:47.741Z,12.45
2023-06-02T15:40:57.797Z,12.35
2023-06-02T15:44:02.512Z,12.33
2023-06-02T15:47:10.118Z,12.31
2023-06-02T15:50:15.088Z,12.31
2023-06-02T15:53:22.275Z,12.23
2023-06-02T15:56:29.627Z,12.14
2023-06-02T15:59:36.924Z,12.08
2023-06-02T16:02:42.702Z,12.07
2023-06-02T16:05:48.942Z,12.04
2023-06-02T16:08:54.392Z,11.96
2023-06-02T16:12:01.794Z,11.87
2023-06-02T16:15:08.463Z,11.83
2023-06-02T16:18:14.780Z,11.78
2023-06-02T16:21:21.833Z,11.68
2023-06-02T16:27:46.736Z,11.51
2023-06-02T16:30:54.131Z,11.55
2023-06-02T16:33:59.282Z,11.58
2023-06-02T16:37:06.252Z,11.51
2023-06-02T16:40:12.356Z,11.46
2023-06-02T16:43:30.978Z,11.38
2023-06-02T16:46:37.283Z,11.41
2023-06-02T16:49:47.496Z,11.38
2023-06-02T16:52:54.489Z,11.43
2023-06-02T16:59:20.033Z,11.31
2023-06-02T17:05:44.231Z,11.20
2023-06-02T17:09:00.989Z,11.13
2023-06-02T17:15:28.122Z,11.04
2023-06-02T17:18:36.838Z,10.96
2023-06-02T17:21:44.603Z,10.81
2023-06-02T17:24:53.071Z,10.69
2023-06-02T17:28:00.671Z,10.53
2023-06-02T17:31:13.311Z,10.31
2023-06-02T17:34:18.827Z,10.18
2023-06-02T17:37:24.578Z,10.00
2023-06-02T17:43:54.440Z,9.87
2023-06-02T17:47:03.201Z,9.87
2023-06-02T17:53:29.495Z,9.79
2023-06-02T17:56:36.789Z,9.74
2023-06-02T17:59:43.777Z,9.69
2023-06-02T18:02:50.403Z,9.56
2023-06-02T18:09:15.194Z,9.46
2023-06-02T18:19:00.920Z,9.34
2023-06-02T18:22:08.742Z,9.26
2023-06-02T18:28:39.691Z,9.16
2023-06-02T18:35:06.960Z,9.04
2023-06-02T18:38:15.169Z,9.04
2023-06-02T18:41:22.771Z,9.03
2023-06-02T18:44:29.851Z,8.96
2023-06-02T18:47:36.708Z,8.87
2023-06-02T18:50:43.524Z,8.84
2023-06-02T18:53:57.888Z,8.74
2023-06-02T18:57:04.270Z,8.73
2023-06-02T19:03:34.948Z,8.59
2023-06-02T19:06:48.753Z,8.59
2023-06-02T19:09:56.044Z,8.52
2023-06-02T19:13:03.434Z,8.49
2023-06-02T19:16:10.060Z,8.45
2023-06-02T19:19:17.000Z,8.38
2023-06-02T19:22:22.527Z,8.35
2023-06-02T19:25:30.583Z,8.32
2023-06-02T19:28:38.106Z,8.25
2023-06-02T19:35:03.982Z,8.06
2023-06-02T19:38:15.873Z,8.04
2023-06-02T19:41:21.942Z,7.99
2023-06-02T19:47:45.664Z,7.93
2023-06-02T19:50:51.390Z,7.85
2023-06-02T19:53:57.870Z,7.81
2023-06-02T19:57:03.527Z,7.78
2023-06-02T20:00:11.025Z,7.73
2023-06-02T20:06:36.445Z,7.69
2023-06-02T20:09:43.956Z,7.63
2023-06-02T20:12:54.836Z,7.57
2023-06-02T20:16:02.616Z,7.56
2023-06-02T20:19:08.266Z,7.47
2023-06-02T20:22:16.819Z,7.50
2023-06-02T20:28:53.289Z,7.64
2023-06-02T20:32:06.452Z,7.73
2023-06-02T20:38:32.778Z,7.70
2023-06-02T20:41:40.268Z,7.69
2023-06-02T20:44:47.266Z,7.69
2023-06-02T20:51:30.628Z,7.75
2023-06-02T20:54:36.387Z,7.80
2023-06-02T20:57:43.162Z,7.80
2023-06-02T21:00:49.925Z,7.84
2023-06-02T21:03:59.261Z,7.95
2023-06-02T21:07:05.948Z,8.05
2023-06-02T21:10:12.969Z,8.13
2023-06-02T21:13:20.833Z,8.22
2023-06-02T21:16:31.520Z,8.25
2023-06-02T21:19:41.671Z,8.35
2023-06-02T21:22:47.936Z,8.42
2023-06-02T21:25:58.284Z,8.48
2023-06-02T21:29:04.257Z,8.54
2023-06-02T21:32:12.155Z,8.64
2023-06-02T21:35:19.586Z,8.76
2023-06-02T21:38:24.018Z,8.84
2023-06-02T21:41:32.207Z,8.97
2023-06-02T21:44:38.362Z,9.04
2023-06-02T21:47:46.184Z,9.16
2023-06-02T21:50:54.564Z,9.24
2023-06-02T21:54:00.752Z,9.32
2023-06-02T21:57:11.532Z,9.34
2023-06-02T22:00:20.537Z,9.34
2023-06-02T22:03:27.212Z,9.36
2023-06-02T22:06:32.680Z,9.40
2023-06-02T22:16:18.576Z,9.67
2023-06-02T22:19:26.504Z,9.76
2023-06-02T22:22:32.261Z,9.84
2023-06-02T22:25:37.710Z,9.93
2023-06-02T22:28:44.193Z,9.98
2023-06-02T22:31:50.077Z,10.11
2023-06-02T22:52:40.448Z,10.22
2023-06-02T22:55:49.899Z,10.28
2023-06-02T22:58:56.412Z,10.48
2023-06-02T23:02:04.781Z,10.44
2023-06-02T23:05:10.742Z,10.42
2023-06-02T23:08:25.737Z,10.49
2023-06-02T23:11:32.494Z,10.72
2023-06-02T23:14:37.735Z,11.04
2023-06-02T23:17:44.846Z,11.27
2023-06-02T23:20:52.446Z,11.39
2023-06-02T23:23:58.499Z,11.58
2023-06-02T23:27:04.589Z,11.68
2023-06-02T23:30:13.572Z,11.89
2023-06-02T23:33:20.568Z,12.01
2023-06-02T23:39:51.462Z,12.12
2023-06-02T23:43:10.900Z,12.06
2023-06-02T23:49:36.652Z,12.31
2023-06-02T23:56:18.948Z,12.33
